Time;durP1;ratioP1;P1;durP2;ratioP2;P2;SDS_P1;SDS_P2;PMS_P1;PMS_P2;Temp;Humidity;BMP_temperature;BMP_pressure;BME280_temperature;BME280_humidity;BME280_pressure;Samples;Min_cycle;Max_cycle;Signal;HPM_P1;HPM_P2
2023/08/06 00:01:57;;;;;;;10.68;7.95;;;;;;;17.29;81.51;97429.44;5001766;28;20531;-79
2023/08/06 00:04:22;;;;;;;10.27;7.68;;;;;;;16.72;81.86;97356.66;4999061;28;20041;-79
2023/08/06 00:06:47;;;;;;;10.45;7.32;;;;;;;17.00;82.64;97415.34;5002143;28;20104;-79
2023/08/06 00:09:13;;;;;;;10.40;8.40;;;;;;;17.14;82.21;97414.22;5031312;28;20029;-79
2023/08/06 00:11:38;;;;;;;8.60;6.72;;;;;;;17.23;82.22;97422.47;5017548;28;20025;-78
2023/08/06 00:14:04;;;;;;;7.82;7.03;;;;;;;17.26;81.73;97416.44;5000722;28;20063;-78
2023/08/06 00:16:29;;;;;;;11.35;7.60;;;;;;;17.33;81.85;97427.69;5004184;28;20047;-79
2023/08/06 00:18:54;;;;;;;8.68;7.78;;;;;;;17.12;81.67;97389.25;5008263;28;20091;-79
2023/08/06 00:21:20;;;;;;;8.95;7.13;;;;;;;17.31;81.64;97412.78;4997377;28;20108;-79
2023/08/06 00:23:45;;;;;;;8.73;7.72;;;;;;;17.38;81.26;97413.97;4990046;28;20157;-80
2023/08/06 00:26:11;;;;;;;9.88;8.07;;;;;;;16.93;81.30;97336.91;5046900;28;20124;-80
2023/08/06 00:28:36;;;;;;;9.90;8.45;;;;;;;17.43;81.35;97413.06;4989624;28;20040;-80
2023/08/06 00:31:01;;;;;;;10.73;8.00;;;;;;;17.37;81.81;97408.81;5011170;28;20053;-79
2023/08/06 00:33:27;;;;;;;9.65;8.18;;;;;;;17.27;81.96;97409.84;5026183;28;20037;-79
2023/08/06 00:35:52;;;;;;;13.88;9.70;;;;;;;17.23;82.45;97433.34;4998255;28;20052;-79
2023/08/06 00:38:17;;;;;;;11.77;10.07;;;;;;;17.15;82.81;97431.38;5013322;28;20036;-79
2023/08/06 00:40:43;;;;;;;10.65;9.55;;;;;;;17.15;82.52;97425.94;4988632;28;20033;-79
2023/08/06 00:43:09;;;;;;;10.50;9.35;;;;;;;16.97;83.60;97422.22;4989561;28;20053;-79
2023/08/06 00:45:36;;;;;;;10.93;9.52;;;;;;;16.85;84.18;97411.03;5030324;28;20468;-79
2023/08/06 00:48:02;;;;;;;10.82;9.68;;;;;;;16.73;85.25;97429.00;4993804;28;20495;-79
2023/08/06 00:50:27;;;;;;;9.15;8.25;;;;;;;16.71;85.27;97436.66;5024580;28;20017;-79
2023/08/06 00:52:54;;;;;;;9.75;6.85;;;;;;;16.53;84.74;97403.00;5008675;28;20033;-79
2023/08/06 00:55:19;;;;;;;9.20;6.30;;;;;;;16.59;84.51;97413.47;4997074;28;20051;-79
2023/08/06 00:57:45;;;;;;;7.50;6.68;;;;;;;16.41;84.53;97406.19;4996365;28;20051;-79
2023/08/06 01:00:11;;;;;;;7.78;6.20;;;;;;;16.59;84.29;97413.47;5033527;28;20486;-78
2023/08/06 01:02:37;;;;;;;7.47;6.78;;;;;;;16.79;83.90;97422.31;5005347;28;20150;-79
2023/08/06 01:05:03;;;;;;;6.80;6.20;;;;;;;16.49;84.28;97397.34;5013037;28;20028;-79
2023/08/06 01:07:40;;;;;;;7.32;6.05;;;;;;;16.49;83.98;97413.66;4995861;28;20037;-78
2023/08/06 01:10:12;;;;;;;8.38;6.03;;;;;;;16.59;84.32;97429.00;5020925;28;20049;-79
2023/08/06 01:12:41;;;;;;;6.15;5.55;;;;;;;16.66;84.25;97423.16;5016126;28;20034;-80
2023/08/06 01:15:15;;;;;;;9.20;6.65;;;;;;;16.59;84.15;97429.00;5043573;28;20029;-79
2023/08/06 01:17:41;;;;;;;6.85;6.18;;;;;;;16.57;84.04;97412.16;5002706;28;20045;-79
2023/08/06 01:20:07;;;;;;;6.10;5.50;;;;;;;16.55;83.76;97401.59;5027438;28;20025;-80
2023/08/06 01:22:32;;;;;;;8.43;6.07;;;;;;;16.54;84.01;97410.88;4997674;28;20037;-78
2023/08/06 01:24:57;;;;;;;7.60;6.55;;;;;;;16.52;83.67;97396.75;4987645;28;20032;-78
2023/08/06 01:27:38;;;;;;;7.40;6.70;;;;;;;16.74;83.43;97422.44;5018738;28;20472;-79
2023/08/06 01:30:13;;;;;;;8.25;6.47;;;;;;;16.68;83.14;97410.06;5024928;28;20431;-78
2023/08/06 01:32:43;;;;;;;8.38;6.82;;;;;;;16.77;83.40;97424.53;5013389;28;20040;-79
2023/08/06 01:35:10;;;;;;;10.25;7.72;;;;;;;16.70;83.78;97407.84;5013729;28;20096;-80
2023/08/06 01:37:36;;;;;;;8.75;7.10;;;;;;;16.41;83.53;97362.69;5022796;28;20615;-78
2023/08/06 01:40:11;;;;;;;9.23;7.55;;;;;;;16.70;83.72;97408.66;5006021;28;20033;-76
2023/08/06 01:42:37;;;;;;;8.20;7.18;;;;;;;16.70;83.34;97396.97;4994719;28;20064;-77
2023/08/06 01:45:03;;;;;;;7.63;5.97;;;;;;;16.77;83.60;97394.63;5006129;28;20480;-78
2023/08/06 01:47:28;;;;;;;7.35;6.68;;;;;;;16.63;83.76;97363.94;5029412;28;20059;-78
2023/08/06 01:49:54;;;;;;;6.68;5.95;;;;;;;16.84;83.80;97393.13;5013298;28;20025;-76
2023/08/06 01:52:19;;;;;;;9.05;7.32;;;;;;;16.76;83.89;97380.22;5000720;28;20037;-76
2023/08/06 01:54:44;;;;;;;12.20;7.50;;;;;;;16.71;83.65;97371.38;4997061;28;20036;-78
2023/08/06 01:57:10;;;;;;;7.93;6.65;;;;;;;16.54;83.58;97342.91;5006874;28;20076;-79
2023/08/06 01:59:35;;;;;;;9.73;8.15;;;;;;;16.71;83.88;97376.81;5022128;28;20025;-78
2023/08/06 02:02:01;;;;;;;8.13;7.38;;;;;;;16.72;84.11;97375.69;5028622;28;20033;-78
2023/08/06 02:04:26;;;;;;;8.75;7.82;;;;;;;16.67;83.89;97362.22;4999268;28;20029;-77
2023/08/06 02:06:52;;;;;;;9.18;8.15;;;;;;;16.46;84.05;97321.84;5011305;28;20507;-77
2023/08/06 02:09:17;;;;;;;9.38;7.72;;;;;;;16.74;83.95;97362.59;4990199;28;20385;-77
2023/08/06 02:11:43;;;;;;;10.82;8.90;;;;;;;16.68;83.93;97361.09;5014957;28;20037;-77
2023/08/06 02:14:08;;;;;;;7.63;6.60;;;;;;;16.75;84.25;97366.94;4998771;28;20503;-78
2023/08/06 02:16:33;;;;;;;7.95;7.15;;;;;;;16.83;84.22;97363.50;5011224;28;20587;-78
2023/08/06 02:18:59;;;;;;;7.80;6.95;;;;;;;16.63;84.22;97334.03;4998619;28;20074;-77
2023/08/06 02:21:24;;;;;;;8.65;7.53;;;;;;;16.55;84.09;97327.38;5027523;28;20048;-77
2023/08/06 02:23:49;;;;;;;10.10;8.38;;;;;;;16.77;84.36;97378.31;4995673;28;20029;-77
2023/08/06 02:26:15;;;;;;;9.75;8.73;;;;;;;16.40;84.31;97328.50;5044379;28;20037;-78
2023/08/06 02:28:40;;;;;;;10.20;9.20;;;;;;;16.59;84.81;97364.53;5015256;28;20029;-78
2023/08/06 02:31:06;;;;;;;10.60;8.27;;;;;;;16.48;84.61;97351.41;5005777;28;20098;-78
2023/08/06 02:33:32;;;;;;;9.10;8.20;;;;;;;16.50;84.37;97352.72;5002208;28;20021;-77
2023/08/06 02:36:01;;;;;;;9.02;8.13;;;;;;;16.48;84.29;97357.66;5011751;28;20550;-77
2023/08/06 02:38:27;;;;;;;8.88;6.90;;;;;;;16.54;84.62;97367.38;5009767;28;20039;-77
2023/08/06 02:40:52;;;;;;;8.63;7.72;;;;;;;16.34;84.40;97335.13;4998232;28;20045;-77
2023/08/06 02:43:17;;;;;;;9.60;7.35;;;;;;;16.54;84.42;97348.34;5010273;28;20029;-77
2023/08/06 02:45:43;;;;;;;9.85;7.38;;;;;;;16.56;84.16;97337.16;5026249;28;20191;-76
2023/08/06 02:48:09;;;;;;;8.98;7.05;;;;;;;16.58;83.90;97333.03;5011264;28;20028;-78
2023/08/06 02:50:41;;;;;;;10.52;8.50;;;;;;;16.68;84.03;97340.16;5010966;28;20037;-77
2023/08/06 02:53:08;;;;;;;9.60;8.60;;;;;;;16.52;84.80;97342.38;4998868;28;20063;-78
2023/08/06 02:55:34;;;;;;;10.07;8.43;;;;;;;16.38;84.64;97319.81;4985059;28;20482;-78
2023/08/06 02:58:01;;;;;;;10.75;8.95;;;;;;;16.44;84.90;97343.06;5001792;28;20114;-77
2023/08/06 03:00:27;;;;;;;10.13;9.13;;;;;;;16.40;84.51;97333.94;5045896;28;20029;-77
2023/08/06 03:02:53;;;;;;;9.43;8.20;;;;;;;16.19;84.30;97283.81;5018033;28;20029;-77
2023/08/06 03:05:27;;;;;;;12.30;9.70;;;;;;;16.39;84.45;97296.97;5043357;28;20449;-76
2023/08/06 03:07:53;;;;;;;9.98;8.45;;;;;;;16.52;84.46;97325.28;5033312;28;20068;-78
2023/08/06 03:10:22;;;;;;;11.98;7.75;;;;;;;16.53;84.50;97316.81;5002989;28;20021;-77
2023/08/06 03:12:50;;;;;;;8.65;7.78;;;;;;;16.59;84.38;97314.81;5046145;28;20698;-77
2023/08/06 03:15:17;;;;;;;10.25;9.25;;;;;;;16.43;84.53;97295.25;4994100;28;20086;-77
2023/08/06 03:17:44;;;;;;;10.77;9.20;;;;;;;16.53;84.37;97305.13;5007047;28;20036;-79
2023/08/06 03:20:10;;;;;;;10.02;9.13;;;;;;;16.52;84.50;97298.88;5010675;28;20084;-78
2023/08/06 03:22:36;;;;;;;9.10;8.20;;;;;;;16.52;84.89;97308.97;5016540;28;20037;-78
2023/08/06 03:25:01;;;;;;;10.63;8.45;;;;;;;16.45;84.82;97308.56;5013050;28;20025;-78
2023/08/06 03:27:27;;;;;;;8.60;7.60;;;;;;;16.38;84.96;97300.78;5039252;28;20512;-78
2023/08/06 03:29:53;;;;;;;8.07;7.38;;;;;;;16.20;85.00;97279.97;5028287;28;20472;-76
2023/08/06 03:32:21;;;;;;;9.13;7.40;;;;;;;16.27;84.51;97274.13;4997677;28;20040;-76
2023/08/06 03:34:47;;;;;;;9.05;8.05;;;;;;;16.34;84.34;97280.75;5001923;28;20112;-77
2023/08/06 03:37:13;;;;;;;8.20;7.43;;;;;;;16.41;84.83;97297.47;5014206;28;20033;-79
2023/08/06 03:39:39;;;;;;;6.90;5.80;;;;;;;16.34;84.65;97264.47;5028198;28;20075;-77
2023/08/06 03:42:05;;;;;;;7.47;5.97;;;;;;;16.44;84.37;97269.69;5023576;28;20083;-77
2023/08/06 03:44:30;;;;;;;6.93;6.32;;;;;;;16.29;84.25;97234.69;5044322;28;20083;-77
2023/08/06 03:46:56;;;;;;;7.00;6.20;;;;;;;16.40;84.41;97268.69;5004914;28;20094;-78
2023/08/06 03:49:22;;;;;;;7.97;7.15;;;;;;;16.10;85.00;97282.91;5007829;28;20088;-78
2023/08/06 03:51:47;;;;;;;8.18;7.38;;;;;;;16.03;85.56;97278.97;5013873;28;20116;-77
2023/08/06 03:54:13;;;;;;;9.90;8.55;;;;;;;15.45;85.43;97189.16;5011017;28;20029;-78
2023/08/06 03:56:38;;;;;;;9.18;7.15;;;;;;;16.19;84.98;97272.94;5004427;28;20092;-78
2023/08/06 03:59:04;;;;;;;11.00;9.20;;;;;;;16.18;85.06;97271.31;5001487;28;20063;-77
2023/08/06 04:01:29;;;;;;;9.77;8.05;;;;;;;16.01;85.26;97262.97;5014250;28;20030;-78
2023/08/06 04:03:55;;;;;;;8.75;7.93;;;;;;;16.04;85.24;97281.38;5007264;28;20108;-77
2023/08/06 04:06:21;;;;;;;10.48;7.90;;;;;;;15.99;85.46;97273.31;5039254;28;20039;-77
2023/08/06 04:08:46;;;;;;;9.25;8.23;;;;;;;15.90;85.77;97275.13;5042463;28;20026;-77
2023/08/06 04:11:13;;;;;;;13.30;9.10;;;;;;;15.92;85.20;97278.34;5005020;28;20060;-76
2023/08/06 04:13:44;;;;;;;11.60;8.32;;;;;;;15.89;84.89;97281.69;5025911;28;20021;-75
2023/08/06 04:16:09;;;;;;;9.60;8.70;;;;;;;15.92;85.93;97289.22;5012204;28;20124;-76
2023/08/06 04:18:35;;;;;;;9.20;7.38;;;;;;;15.86;85.54;97263.28;5009529;28;20079;-75
2023/08/06 04:21:01;;;;;;;9.60;7.53;;;;;;;16.00;85.70;97279.56;5039830;28;20025;-75
2023/08/06 04:23:27;;;;;;;8.18;7.15;;;;;;;15.97;85.63;97280.97;5040611;28;20466;-75
2023/08/06 04:25:57;;;;;;;7.75;6.90;;;;;;;15.94;85.71;97281.56;5031234;28;20029;-75
2023/08/06 04:28:23;;;;;;;8.07;7.18;;;;;;;15.74;86.43;97292.81;5015321;28;20025;-75
2023/08/06 04:30:49;;;;;;;8.60;7.50;;;;;;;15.64;86.46;97271.28;5002904;28;20543;-75
2023/08/06 04:33:14;;;;;;;8.57;7.78;;;;;;;15.76;86.06;97290.59;5007307;28;20578;-75
2023/08/06 04:35:40;;;;;;;8.55;7.40;;;;;;;15.61;86.62;97266.47;4999953;28;20442;-75
2023/08/06 04:38:05;;;;;;;8.43;7.47;;;;;;;15.65;86.50;97272.91;5040544;28;20029;-75
2023/08/06 04:40:33;;;;;;;8.52;7.70;;;;;;;15.67;86.15;97270.69;5031340;28;20052;-75
2023/08/06 04:43:00;;;;;;;8.43;7.30;;;;;;;15.68;86.51;97275.03;5031203;28;20028;-75
2023/08/06 04:45:26;;;;;;;10.30;7.70;;;;;;;15.76;85.90;97274.31;5003014;28;20036;-75
2023/08/06 04:47:52;;;;;;;10.27;7.90;;;;;;;15.85;85.84;97283.38;5048890;28;20021;-75
2023/08/06 04:50:18;;;;;;;8.43;7.55;;;;;;;15.70;86.29;97280.97;5020388;28;20029;-75
2023/08/06 04:52:43;;;;;;;8.88;7.90;;;;;;;15.76;85.70;97275.13;5008674;28;20029;-75
2023/08/06 04:55:09;;;;;;;7.55;6.78;;;;;;;15.77;85.84;97278.66;5020694;28;20051;-75
2023/08/06 04:57:34;;;;;;;7.22;6.47;;;;;;;15.95;85.96;97290.53;5007070;28;20088;-76
2023/08/06 04:59:59;;;;;;;7.70;6.20;;;;;;;15.78;85.88;97267.50;5011318;28;20557;-76
2023/08/06 05:02:25;;;;;;;6.97;6.28;;;;;;;15.80;86.11;97269.88;4998340;28;20029;-77
2023/08/06 05:04:50;;;;;;;6.63;5.88;;;;;;;15.77;85.95;97265.09;5002201;28;20649;-76
2023/08/06 05:07:15;;;;;;;6.43;5.82;;;;;;;15.62;85.57;97230.88;5023519;28;20029;-76
2023/08/06 05:09:41;;;;;;;6.40;5.80;;;;;;;15.64;85.68;97244.94;5014052;28;20401;-78
2023/08/06 05:12:07;;;;;;;6.63;5.95;;;;;;;15.74;85.48;97257.53;5010684;28;20033;-76
2023/08/06 05:14:32;;;;;;;5.90;5.40;;;;;;;15.82;85.25;97268.50;4998175;28;20040;-77
2023/08/06 05:16:57;;;;;;;6.20;5.60;;;;;;;15.74;85.39;97230.38;5017265;28;20026;-78
2023/08/06 05:19:23;;;;;;;8.20;5.97;;;;;;;15.96;85.51;97263.09;4997666;28;20076;-77
2023/08/06 05:21:48;;;;;;;5.55;5.05;;;;;;;15.85;85.53;97245.38;5015312;28;20072;-76
2023/08/06 05:24:13;;;;;;;6.00;5.22;;;;;;;15.99;84.82;97254.31;5028203;28;20432;-77
2023/08/06 05:26:39;;;;;;;5.97;5.38;;;;;;;16.13;85.47;97268.69;5014418;28;20021;-76
2023/08/06 05:29:04;;;;;;;6.18;5.57;;;;;;;15.81;85.22;97226.16;5019210;28;20037;-78
2023/08/06 05:31:33;;;;;;;6.38;5.57;;;;;;;16.09;84.96;97270.41;5023498;28;20025;-77
2023/08/06 05:33:58;;;;;;;6.82;5.70;;;;;;;16.15;85.04;97266.47;5028226;28;20399;-77
2023/08/06 05:36:23;;;;;;;9.95;5.70;;;;;;;15.90;85.30;97231.69;5030942;28;20139;-77
2023/08/06 05:38:49;;;;;;;6.78;5.30;;;;;;;16.08;85.60;97254.44;5015690;28;20052;-77
2023/08/06 05:41:14;;;;;;;5.20;4.70;;;;;;;16.07;84.85;97234.63;5031724;28;20567;-78
2023/08/06 05:43:39;;;;;;;6.82;5.55;;;;;;;16.29;84.78;97264.56;5002409;28;20033;-77
2023/08/06 05:46:05;;;;;;;5.85;5.25;;;;;;;16.21;84.70;97249.00;5035564;28;20021;-77
2023/08/06 05:48:36;;;;;;;6.47;5.80;;;;;;;16.34;84.75;97247.34;5038016;28;20179;-77
2023/08/06 05:51:02;;;;;;;6.13;5.53;;;;;;;16.52;84.62;97260.06;5046319;28;20056;-77
2023/08/06 05:53:27;;;;;;;7.65;5.85;;;;;;;16.34;85.17;97248.16;5054058;28;20450;-77
2023/08/06 05:55:52;;;;;;;7.18;6.22;;;;;;;16.24;85.72;97229.34;5024053;28;20029;-77
2023/08/06 05:58:19;;;;;;;5.70;5.20;;;;;;;16.42;84.58;97228.44;5001280;28;20384;-77
2023/08/06 06:00:45;;;;;;;6.20;5.15;;;;;;;16.68;84.45;97242.28;5023953;28;20052;-77
2023/08/06 06:03:10;;;;;;;6.00;5.40;;;;;;;16.75;84.63;97236.41;5007970;28;20022;-77
2023/08/06 06:05:39;;;;;;;5.38;4.75;;;;;;;16.83;84.05;97260.16;5023610;28;20037;-77
2023/08/06 06:08:04;;;;;;;5.38;4.97;;;;;;;16.85;84.31;97268.84;5025897;28;20111;-78
2023/08/06 06:10:30;;;;;;;6.78;5.30;;;;;;;16.74;84.08;97256.56;5030924;28;20037;-78
2023/08/06 06:12:56;;;;;;;7.43;5.18;;;;;;;16.75;84.06;97244.59;5028992;28;20036;-77
2023/08/06 06:15:21;;;;;;;6.40;5.53;;;;;;;16.80;83.72;97241.75;5055634;28;20057;-77
2023/08/06 06:17:46;;;;;;;5.57;5.07;;;;;;;16.83;83.84;97243.84;5034780;28;20416;-77
2023/08/06 06:20:12;;;;;;;5.20;4.63;;;;;;;16.68;83.98;97241.47;5042015;28;20032;-77
2023/08/06 06:22:37;;;;;;;5.43;4.63;;;;;;;16.72;84.34;97266.94;5001759;28;20029;-77
2023/08/06 06:25:03;;;;;;;6.68;5.65;;;;;;;16.56;84.07;97234.66;5016134;28;20160;-78
2023/08/06 06:27:28;;;;;;;6.25;5.45;;;;;;;16.78;84.58;97273.88;4996765;28;20116;-77
2023/08/06 06:29:54;;;;;;;5.90;5.32;;;;;;;16.68;84.19;97246.91;5003789;28;20044;-78
2023/08/06 06:32:20;;;;;;;7.32;5.15;;;;;;;16.81;83.98;97252.31;4994811;28;20021;-76
2023/08/06 06:34:46;;;;;;;8.52;5.13;;;;;;;16.92;84.35;97259.09;5017842;28;20045;-76
2023/08/06 06:37:11;;;;;;;5.47;4.95;;;;;;;16.88;83.63;97251.88;5007469;28;20079;-76
2023/08/06 06:39:36;;;;;;;7.60;5.15;;;;;;;16.78;83.74;97233.88;5026658;28;20073;-76
2023/08/06 06:42:02;;;;;;;5.72;5.13;;;;;;;17.02;83.96;97255.34;5033897;28;20059;-76
2023/08/06 06:44:35;;;;;;;6.43;4.93;;;;;;;17.12;83.36;97236.88;5043187;28;20048;-76
2023/08/06 06:47:00;;;;;;;7.05;4.85;;;;;;;16.98;83.22;97219.00;5033526;28;20029;-76
2023/08/06 06:49:26;;;;;;;5.65;4.85;;;;;;;16.85;82.91;97214.44;5033576;28;20101;-76
2023/08/06 06:51:51;;;;;;;6.15;5.15;;;;;;;17.15;82.95;97257.22;5021401;28;20028;-76
2023/08/06 06:54:16;;;;;;;5.60;5.03;;;;;;;17.17;82.98;97233.22;5069822;28;20487;-76
2023/08/06 06:56:42;;;;;;;5.75;4.90;;;;;;;17.28;83.15;97243.53;5039876;28;20045;-76
2023/08/06 06:59:07;;;;;;;5.97;5.20;;;;;;;17.14;83.26;97239.28;5025869;28;20022;-76
2023/08/06 07:01:33;;;;;;;6.60;5.30;;;;;;;17.36;82.94;97257.53;5013516;28;20075;-76
2023/08/06 07:03:58;;;;;;;6.35;4.75;;;;;;;17.34;82.88;97222.44;5010555;28;20132;-76
2023/08/06 07:06:23;;;;;;;5.90;5.25;;;;;;;17.53;82.61;97228.50;5025337;28;20040;-77
2023/08/06 07:08:49;;;;;;;6.20;4.82;;;;;;;17.67;82.03;97221.03;5029452;28;20480;-77
2023/08/06 07:11:14;;;;;;;7.78;4.80;;;;;;;17.86;82.12;97246.13;5002773;28;20032;-78
2023/08/06 07:13:39;;;;;;;6.38;5.00;;;;;;;17.74;82.15;97213.22;5002576;28;20029;-78
2023/08/06 07:16:05;;;;;;;5.72;5.07;;;;;;;17.90;81.75;97244.38;4991475;28;20056;-76
2023/08/06 07:18:30;;;;;;;5.35;4.85;;;;;;;17.84;82.30;97248.38;5028712;28;20479;-77
2023/08/06 07:20:56;;;;;;;11.35;5.35;;;;;;;17.75;82.53;97252.16;5004943;28;20037;-77
2023/08/06 07:23:23;;;;;;;5.85;5.10;;;;;;;17.88;82.50;97248.53;5055339;28;20021;-79
2023/08/06 07:25:48;;;;;;;5.55;4.70;;;;;;;17.83;82.21;97245.94;5000886;28;20057;-80
2023/08/06 07:28:17;;;;;;;6.10;5.47;;;;;;;17.88;82.23;97249.34;5013082;28;20044;-77
2023/08/06 07:30:43;;;;;;;5.88;5.03;;;;;;;18.00;81.71;97234.31;4991032;28;20022;-77
2023/08/06 07:33:09;;;;;;;6.95;5.00;;;;;;;18.05;81.53;97234.16;5002053;28;20025;-77
2023/08/06 07:35:35;;;;;;;5.88;5.30;;;;;;;18.25;81.18;97247.22;5001861;28;20047;-77
2023/08/06 07:38:01;;;;;;;5.97;4.47;;;;;;;18.17;81.40;97228.91;5005958;28;20036;-78
2023/08/06 07:40:27;;;;;;;5.88;4.50;;;;;;;18.22;81.21;97236.97;5015395;28;20037;-77
2023/08/06 07:42:52;;;;;;;6.10;4.78;;;;;;;18.13;80.84;97201.50;4984376;28;20076;-77
2023/08/06 07:45:18;;;;;;;6.30;4.28;;;;;;;18.17;80.26;97218.03;5036006;28;20029;-78
2023/08/06 07:47:43;;;;;;;5.30;4.20;;;;;;;18.19;79.91;97221.22;5011247;28;20018;-78
2023/08/06 07:50:09;;;;;;;5.50;4.45;;;;;;;17.94;80.07;97199.06;5022796;28;20056;-78
2023/08/06 07:52:35;;;;;;;4.57;4.13;;;;;;;18.27;79.87;97224.00;4987456;28;20063;-78
2023/08/06 07:55:01;;;;;;;4.85;4.03;;;;;;;18.05;80.37;97218.63;5004030;28;20504;-78
2023/08/06 07:57:27;;;;;;;6.68;3.90;;;;;;;18.24;80.32;97212.91;5011068;28;20403;-78
2023/08/06 07:59:53;;;;;;;3.92;3.53;;;;;;;18.21;79.45;97219.78;5039606;28;20036;-78
2023/08/06 08:02:19;;;;;;;4.30;3.60;;;;;;;18.33;79.06;97217.25;5019627;28;20029;-78
2023/08/06 08:04:47;;;;;;;4.63;3.75;;;;;;;18.21;78.52;97202.63;5007354;28;20045;-78
2023/08/06 08:07:12;;;;;;;6.35;3.70;;;;;;;18.09;78.78;97177.91;5058623;28;20105;-77
2023/08/06 08:09:37;;;;;;;5.47;3.50;;;;;;;18.26;78.27;97189.66;5016576;28;20068;-77
2023/08/06 08:12:03;;;;;;;7.53;3.75;;;;;;;18.28;78.10;97202.97;5058881;28;20022;-81
2023/08/06 08:14:29;;;;;;;5.95;3.80;;;;;;;18.28;78.05;97189.34;5023310;28;20625;-78
2023/08/06 08:16:54;;;;;;;4.68;3.72;;;;;;;18.35;77.98;97209.56;5019136;28;20527;-78
2023/08/06 08:19:21;;;;;;;3.85;3.28;;;;;;;18.49;77.22;97193.91;4998620;28;20035;-77
2023/08/06 08:21:46;;;;;;;4.38;2.90;;;;;;;18.14;76.31;97177.75;5025130;28;20472;-78
2023/08/06 08:24:11;;;;;;;4.47;3.17;;;;;;;18.03;76.69;97154.66;5003352;28;20053;-78
2023/08/06 08:26:37;;;;;;;4.82;3.20;;;;;;;17.85;77.07;97167.47;5012613;28;20182;-78
2023/08/06 08:29:02;;;;;;;3.65;3.08;;;;;;;17.61;78.06;97146.06;5022786;28;20033;-78
2023/08/06 08:31:28;;;;;;;8.20;3.90;;;;;;;17.42;79.50;97175.41;5012731;28;20116;-77
2023/08/06 08:33:54;;;;;;;4.88;3.00;;;;;;;17.09;79.52;97188.53;5050026;28;20033;-78
2023/08/06 08:36:19;;;;;;;5.47;3.10;;;;;;;16.78;80.89;97167.84;5009665;28;20376;-77
2023/08/06 08:38:44;;;;;;;3.80;3.40;;;;;;;16.77;81.10;97163.50;5036811;28;20041;-78
2023/08/06 08:41:11;;;;;;;4.63;3.13;;;;;;;16.70;82.14;97174.81;5009964;28;20025;-77
2023/08/06 08:43:36;;;;;;;4.78;3.28;;;;;;;16.79;83.05;97200.16;4998925;28;20037;-77
2023/08/06 08:46:03;;;;;;;4.43;3.75;;;;;;;16.67;83.60;97185.47;5008343;28;20120;-77
2023/08/06 08:48:28;;;;;;;4.53;3.53;;;;;;;16.62;83.81;97170.09;5021664;28;20137;-77
2023/08/06 08:50:55;;;;;;;4.38;3.42;;;;;;;16.93;84.44;97211.78;5024792;28;20183;-77
2023/08/06 08:53:21;;;;;;;4.88;3.40;;;;;;;17.08;84.65;97202.44;5011360;28;20041;-77
2023/08/06 08:55:47;;;;;;;5.85;3.58;;;;;;;17.29;84.68;97201.59;5014859;28;20083;-77
2023/08/06 08:58:13;;;;;;;4.13;3.70;;;;;;;17.44;85.06;97189.50;5028100;28;20052;-77
2023/08/06 09:00:40;;;;;;;4.03;3.50;;;;;;;17.70;85.19;97193.19;5004134;28;20022;-77
2023/08/06 09:03:06;;;;;;;5.13;2.88;;;;;;;16.96;82.71;97112.44;4986511;28;20069;-78
2023/08/06 09:05:32;;;;;;;3.15;2.85;;;;;;;17.45;82.98;97212.91;5009480;28;20116;-78
2023/08/06 09:08:03;;;;;;;4.28;2.60;;;;;;;17.18;82.76;97196.72;5001790;28;20419;-77
2023/08/06 09:10:29;;;;;;;4.50;2.10;;;;;;;16.71;81.68;97181.06;5025221;28;20030;-77
2023/08/06 09:12:55;;;;;;;2.67;2.00;;;;;;;16.71;82.26;97213.69;5014991;28;20056;-77
2023/08/06 09:15:24;;;;;;;1.63;1.40;;;;;;;16.65;81.07;97204.84;5014912;28;20127;-77
2023/08/06 09:17:49;;;;;;;2.90;1.50;;;;;;;16.75;82.08;97214.66;5025964;28;20072;-78
2023/08/06 09:20:16;;;;;;;1.30;1.20;;;;;;;16.59;82.00;97160.63;5015640;28;20435;-77
2023/08/06 09:22:41;;;;;;;2.13;1.50;;;;;;;16.78;82.61;97181.44;5012453;28;20021;-78
2023/08/06 09:25:10;;;;;;;2.67;1.40;;;;;;;17.04;81.49;97220.47;5016611;28;20037;-78
2023/08/06 09:27:37;;;;;;;2.20;1.60;;;;;;;17.28;81.55;97218.25;5017403;28;20033;-77
2023/08/06 09:30:03;;;;;;;1.50;1.40;;;;;;;17.26;80.97;97198.72;5009921;28;20041;-78
2023/08/06 09:32:44;;;;;;;3.45;1.40;;;;;;;17.42;79.14;97191.75;5012199;28;20028;-77
2023/08/06 09:35:15;;;;;;;2.42;1.48;;;;;;;17.58;79.77;97162.22;5010548;28;20033;-78
2023/08/06 09:37:40;;;;;;;1.52;1.38;;;;;;;17.73;78.32;97176.22;5017781;28;20084;-78
2023/08/06 09:40:24;;;;;;;2.08;1.30;;;;;;;17.45;78.34;97204.75;5004241;28;20026;-77
2023/08/06 09:42:50;;;;;;;1.58;1.40;;;;;;;16.95;81.12;97173.38;5007897;28;20034;-78
2023/08/06 09:45:16;;;;;;;2.08;1.42;;;;;;;17.08;80.92;97202.44;5001759;28;20120;-77
2023/08/06 09:47:41;;;;;;;6.45;1.80;;;;;;;17.15;82.68;97208.25;5028464;28;20065;-78
2023/08/06 09:50:18;;;;;;;2.60;1.70;;;;;;;17.20;83.11;97210.81;5029338;28;20063;-77
2023/08/06 09:52:44;;;;;;;2.90;1.63;;;;;;;16.99;82.51;97190.72;5015417;28;20052;-77
2023/08/06 09:55:13;;;;;;;1.58;1.30;;;;;;;17.28;81.84;97204.63;5016927;28;20032;-77
2023/08/06 09:57:42;;;;;;;1.70;1.27;;;;;;;17.38;81.12;97201.66;5024849;28;20091;-77
2023/08/06 10:00:09;;;;;;;1.60;1.50;;;;;;;17.24;81.46;97179.16;5020721;28;20037;-77
2023/08/06 10:02:41;;;;;;;4.18;1.80;;;;;;;17.49;81.14;97181.22;5036474;28;20041;-78
2023/08/06 10:05:10;;;;;;;1.40;1.30;;;;;;;17.79;81.02;97179.59;5030112;28;20053;-78
2023/08/06 10:07:35;;;;;;;1.95;1.30;;;;;;;17.77;78.23;97165.50;4989847;28;20056;-78
2023/08/06 10:10:02;;;;;;;2.15;1.27;;;;;;;17.66;78.17;97162.28;5010471;28;20042;-77
2023/08/06 10:12:29;;;;;;;1.13;1.10;;;;;;;17.79;77.46;97174.97;5009629;28;20028;-77
2023/08/06 10:14:57;;;;;;;1.23;0.88;;;;;;;17.49;76.69;97154.00;5012086;28;20499;-77
2023/08/06 10:17:23;;;;;;;1.08;1.00;;;;;;;17.59;76.01;97153.75;5012477;28;20115;-77
2023/08/06 10:19:50;;;;;;;1.20;1.10;;;;;;;17.68;76.06;97157.31;5015404;28;20116;-78
2023/08/06 10:22:17;;;;;;;1.20;1.10;;;;;;;17.34;77.10;97146.22;5015408;28;20082;-78
2023/08/06 10:24:45;;;;;;;1.08;1.00;;;;;;;17.54;76.62;97181.13;4989298;28;20035;-78
2023/08/06 10:27:11;;;;;;;1.10;1.00;;;;;;;17.19;77.44;97133.84;5029732;28;20029;-77
2023/08/06 10:29:37;;;;;;;1.00;1.00;;;;;;;17.54;77.68;97162.06;5000427;28;20041;-77
2023/08/06 10:32:04;;;;;;;1.55;1.10;;;;;;;17.82;77.66;97168.88;5007017;28;20470;-77
2023/08/06 10:34:52;;;;;;;0.82;0.80;;;;;;;18.17;75.45;97168.97;5000153;28;20022;-78
2023/08/06 10:37:19;;;;;;;0.98;0.80;;;;;;;18.20;74.64;97160.16;5003047;28;20406;-78
2023/08/06 10:39:53;;;;;;;1.70;0.80;;;;;;;17.75;73.93;97152.19;5014298;28;20468;-77
2023/08/06 10:42:22;;;;;;;0.95;0.70;;;;;;;17.49;74.68;97124.03;5022131;28;20065;-77
2023/08/06 10:45:33;;;;;;;0.90;0.88;;;;;;;17.58;75.73;97151.31;5011124;28;20092;-77
2023/08/06 10:47:58;;;;;;;1.17;0.90;;;;;;;17.44;76.13;97129.63;5036656;28;20167;-79
2023/08/06 10:50:24;;;;;;;2.88;1.10;;;;;;;17.66;77.00;97148.66;5008975;28;20064;-77
2023/08/06 10:52:50;;;;;;;2.15;0.90;;;;;;;17.35;77.00;97126.06;5025831;28;20037;-77
2023/08/06 10:55:25;;;;;;;2.13;1.00;;;;;;;17.51;76.78;97140.91;5015965;28;20038;-77
2023/08/06 10:57:51;;;;;;;1.17;1.00;;;;;;;17.51;76.78;97119.13;4990898;28;20038;-77
2023/08/06 11:00:16;;;;;;;1.10;1.00;;;;;;;17.43;78.50;97138.94;4990376;28;20426;-76
2023/08/06 11:02:41;;;;;;;2.10;1.10;;;;;;;17.17;78.21;97140.72;4997481;28;20057;-77
2023/08/06 11:05:11;;;;;;;1.52;1.02;;;;;;;17.13;79.12;97139.72;4999903;28;20468;-77
2023/08/06 11:07:37;;;;;;;1.48;0.90;;;;;;;16.93;79.22;97099.44;5013229;28;20057;-76
2023/08/06 11:10:10;;;;;;;2.88;1.50;;;;;;;17.44;79.79;97129.63;5016548;28;20025;-77
2023/08/06 11:12:36;;;;;;;2.35;1.30;;;;;;;17.65;80.71;97129.88;5000052;28;20384;-77
2023/08/06 11:15:02;;;;;;;1.55;1.40;;;;;;;18.00;79.50;97117.16;5001955;28;20048;-77
2023/08/06 11:17:29;;;;;;;1.45;1.35;;;;;;;17.77;80.79;97087.31;5023648;28;20399;-77
2023/08/06 11:19:54;;;;;;;2.38;1.20;;;;;;;18.26;80.84;97118.00;5033445;28;20383;-77
2023/08/06 11:22:21;;;;;;;1.30;0.90;;;;;;;18.56;77.79;97117.06;5007154;28;20045;-77
2023/08/06 11:24:46;;;;;;;1.50;0.73;;;;;;;18.61;74.53;97104.06;5000268;28;20044;-77
2023/08/06 11:27:16;;;;;;;0.75;0.70;;;;;;;18.68;74.96;97124.59;4992189;28;20492;-77
2023/08/06 11:29:41;;;;;;;0.73;0.50;;;;;;;18.53;71.69;97084.97;5027839;28;20056;-76